sensor_id;sensor_type;location;lat;lon;timestamp;temperature;humidity
68385;DHT22;55336;43.062;25.626;2022-08-01T00:01:43;16.60;99.90
68385;DHT22;55336;43.062;25.626;2022-08-01T00:04:09;16.60;99.90
68385;DHT22;55336;43.062;25.626;2022-08-01T00:06:35;16.50;99.90
68385;DHT22;55336;43.062;25.626;2022-08-01T00:09:01;16.50;99.90
68385;DHT22;55336;43.062;25.626;2022-08-01T00:11:27;16.40;99.90
68385;DHT22;55336;43.062;25.626;2022-08-01T00:13:53;16.40;99.90
68385;DHT22;55336;43.062;25.626;2022-08-01T00:16:21;16.30;99.90
68385;DHT22;55336;43.062;25.626;2022-08-01T00:18:49;16.20;99.90
68385;DHT22;55336;43.062;25.626;2022-08-01T00:21:16;16.30;99.90
68385;DHT22;55336;43.062;25.626;2022-08-01T00:23:42;16.20;99.90
68385;DHT22;55336;43.062;25.626;2022-08-01T00:26:09;16.30;99.90
68385;DHT22;55336;43.062;25.626;2022-08-01T00:28:35;16.20;99.90
68385;DHT22;55336;43.062;25.626;2022-08-01T00:31:01;16.20;99.90
68385;DHT22;55336;43.062;25.626;2022-08-01T00:33:27;16.20;99.90
68385;DHT22;55336;43.062;25.626;2022-08-01T00:35:53;16.10;99.90
68385;DHT22;55336;43.062;25.626;2022-08-01T00:38:19;16.20;99.90
68385;DHT22;55336;43.062;25.626;2022-08-01T00:40:45;16.20;99.90
68385;DHT22;55336;43.062;25.626;2022-08-01T00:43:10;16.20;99.90
68385;DHT22;55336;43.062;25.626;2022-08-01T00:45:36;16.20;99.90
68385;DHT22;55336;43.062;25.626;2022-08-01T00:48:03;16.20;99.90
68385;DHT22;55336;43.062;25.626;2022-08-01T00:50:29;16.20;99.90
68385;DHT22;55336;43.062;25.626;2022-08-01T00:52:55;16.20;99.90
68385;DHT22;55336;43.062;25.626;2022-08-01T00:55:21;16.20;99.90
68385;DHT22;55336;43.062;25.626;2022-08-01T00:57:48;16.10;99.90
68385;DHT22;55336;43.062;25.626;2022-08-01T01:00:16;16.10;99.90
68385;DHT22;55336;43.062;25.626;2022-08-01T01:02:42;16.10;99.90
68385;DHT22;55336;43.062;25.626;2022-08-01T01:05:09;16.00;99.90
68385;DHT22;55336;43.062;25.626;2022-08-01T01:13:05;15.90;99.90
68385;DHT22;55336;43.062;25.626;2022-08-01T01:15:57;15.90;99.90
68385;DHT22;55336;43.062;25.626;2022-08-01T01:18:36;15.80;99.90
68385;DHT22;55336;43.062;25.626;2022-08-01T01:23:44;15.80;99.90
68385;DHT22;55336;43.062;25.626;2022-08-01T01:32:13;15.80;99.90
68385;DHT22;55336;43.062;25.626;2022-08-01T01:34:44;15.70;99.90
68385;DHT22;55336;43.062;25.626;2022-08-01T01:37:14;15.80;99.90
68385;DHT22;55336;43.062;25.626;2022-08-01T01:39:41;15.70;99.90
68385;DHT22;55336;43.062;25.626;2022-08-01T01:42:08;15.70;99.90
68385;DHT22;55336;43.062;25.626;2022-08-01T01:44:36;15.80;99.90
68385;DHT22;55336;43.062;25.626;2022-08-01T01:47:04;15.70;99.90
68385;DHT22;55336;43.062;25.626;2022-08-01T01:49:30;15.70;99.90
68385;DHT22;55336;43.062;25.626;2022-08-01T01:51:58;15.70;99.90
68385;DHT22;55336;43.062;25.626;2022-08-01T01:54:32;15.70;99.90
68385;DHT22;55336;43.062;25.626;2022-08-01T01:57:01;15.70;99.90
68385;DHT22;55336;43.062;25.626;2022-08-01T01:59:31;15.70;99.90
68385;DHT22;55336;43.062;25.626;2022-08-01T02:02:01;15.70;99.90
68385;DHT22;55336;43.062;25.626;2022-08-01T02:04:28;15.70;99.90
68385;DHT22;55336;43.062;25.626;2022-08-01T02:06:56;15.70;99.90
68385;DHT22;55336;43.062;25.626;2022-08-01T02:09:24;15.60;99.90
68385;DHT22;55336;43.062;25.626;2022-08-01T02:11:52;15.60;99.90
68385;DHT22;55336;43.062;25.626;2022-08-01T02:14:19;15.60;99.90
68385;DHT22;55336;43.062;25.626;2022-08-01T02:16:48;15.70;99.90
68385;DHT22;55336;43.062;25.626;2022-08-01T02:19:18;15.60;99.90
68385;DHT22;55336;43.062;25.626;2022-08-01T02:24:24;15.60;99.90
68385;DHT22;55336;43.062;25.626;2022-08-01T02:26:53;15.60;99.90
68385;DHT22;55336;43.062;25.626;2022-08-01T02:29:27;15.50;99.90
68385;DHT22;55336;43.062;25.626;2022-08-01T02:31:54;15.50;99.90
68385;DHT22;55336;43.062;25.626;2022-08-01T02:34:21;15.50;99.90
68385;DHT22;55336;43.062;25.626;2022-08-01T02:36:48;15.40;99.90
68385;DHT22;55336;43.062;25.626;2022-08-01T02:39:17;15.40;99.90
68385;DHT22;55336;43.062;25.626;2022-08-01T02:41:47;15.40;99.90
68385;DHT22;55336;43.062;25.626;2022-08-01T02:44:27;15.40;99.90
68385;DHT22;55336;43.062;25.626;2022-08-01T02:47:02;15.30;99.90
68385;DHT22;55336;43.062;25.626;2022-08-01T02:49:35;15.30;99.90
68385;DHT22;55336;43.062;25.626;2022-08-01T02:52:05;15.30;99.90
68385;DHT22;55336;43.062;25.626;2022-08-01T02:54:33;15.30;99.90
68385;DHT22;55336;43.062;25.626;2022-08-01T02:57:00;15.30;99.90
68385;DHT22;55336;43.062;25.626;2022-08-01T02:59:29;15.20;99.90
68385;DHT22;55336;43.062;25.626;2022-08-01T03:01:56;15.20;99.90
68385;DHT22;55336;43.062;25.626;2022-08-01T03:04:24;15.20;99.90
68385;DHT22;55336;43.062;25.626;2022-08-01T03:06:52;15.10;99.90
68385;DHT22;55336;43.062;25.626;2022-08-01T03:09:20;15.10;99.90
68385;DHT22;55336;43.062;25.626;2022-08-01T03:11:48;15.10;99.90
68385;DHT22;55336;43.062;25.626;2022-08-01T03:14:15;15.10;99.90
68385;DHT22;55336;43.062;25.626;2022-08-01T03:16:44;15.10;99.90
68385;DHT22;55336;43.062;25.626;2022-08-01T03:19:11;15.10;99.90
68385;DHT22;55336;43.062;25.626;2022-08-01T03:21:39;15.10;99.90
68385;DHT22;55336;43.062;25.626;2022-08-01T03:24:07;15.10;99.90
68385;DHT22;55336;43.062;25.626;2022-08-01T03:26:36;15.10;99.90
68385;DHT22;55336;43.062;25.626;2022-08-01T03:29:12;15.10;99.90
68385;DHT22;55336;43.062;25.626;2022-08-01T03:31:40;15.10;99.90
68385;DHT22;55336;43.062;25.626;2022-08-01T03:34:09;15.10;99.90
68385;DHT22;55336;43.062;25.626;2022-08-01T03:36:35;15.00;99.90
68385;DHT22;55336;43.062;25.626;2022-08-01T03:39:06;15.00;99.90
68385;DHT22;55336;43.062;25.626;2022-08-01T03:41:38;15.10;99.90
68385;DHT22;55336;43.062;25.626;2022-08-01T03:44:14;15.10;99.90
68385;DHT22;55336;43.062;25.626;2022-08-01T03:46:52;15.10;99.90
68385;DHT22;55336;43.062;25.626;2022-08-01T03:49:36;15.20;99.90
68385;DHT22;55336;43.062;25.626;2022-08-01T03:52:04;15.20;99.90
68385;DHT22;55336;43.062;25.626;2022-08-01T03:54:35;15.40;99.90
68385;DHT22;55336;43.062;25.626;2022-08-01T03:57:02;15.50;99.90
68385;DHT22;55336;43.062;25.626;2022-08-01T03:59:30;15.50;99.90
68385;DHT22;55336;43.062;25.626;2022-08-01T04:01:57;15.50;99.90
68385;DHT22;55336;43.062;25.626;2022-08-01T04:04:24;15.70;99.90
68385;DHT22;55336;43.062;25.626;2022-08-01T04:06:50;15.80;99.90
68385;DHT22;55336;43.062;25.626;2022-08-01T04:09:20;16.10;99.90
68385;DHT22;55336;43.062;25.626;2022-08-01T04:12:03;16.20;99.90
68385;DHT22;55336;43.062;25.626;2022-08-01T04:14:29;16.40;99.90
68385;DHT22;55336;43.062;25.626;2022-08-01T04:16:55;16.70;99.90
68385;DHT22;55336;43.062;25.626;2022-08-01T04:19:21;17.00;99.90
68385;DHT22;55336;43.062;25.626;2022-08-01T04:21:47;17.30;99.90
68385;DHT22;55336;43.062;25.626;2022-08-01T04:24:16;17.70;99.90
68385;DHT22;55336;43.062;25.626;2022-08-01T04:26:44;17.80;99.90
68385;DHT22;55336;43.062;25.626;2022-08-01T04:29:11;18.20;99.90
68385;DHT22;55336;43.062;25.626;2022-08-01T04:31:39;18.70;99.90
68385;DHT22;55336;43.062;25.626;2022-08-01T04:34:13;19.10;99.90
68385;DHT22;55336;43.062;25.626;2022-08-01T04:36:40;19.60;99.90
68385;DHT22;55336;43.062;25.626;2022-08-01T04:39:10;20.10;99.90
68385;DHT22;55336;43.062;25.626;2022-08-01T04:41:38;20.50;99.90
68385;DHT22;55336;43.062;25.626;2022-08-01T04:44:05;20.80;98.60
68385;DHT22;55336;43.062;25.626;2022-08-01T04:46:33;21.20;95.20
68385;DHT22;55336;43.062;25.626;2022-08-01T04:49:00;21.60;93.20
68385;DHT22;55336;43.062;25.626;2022-08-01T04:51:26;21.90;86.20
68385;DHT22;55336;43.062;25.626;2022-08-01T04:53:52;21.60;91.00
68385;DHT22;55336;43.062;25.626;2022-08-01T04:56:19;21.50;95.20
68385;DHT22;55336;43.062;25.626;2022-08-01T04:58:46;21.90;94.50
68385;DHT22;55336;43.062;25.626;2022-08-01T05:01:13;22.20;90.10
68385;DHT22;55336;43.062;25.626;2022-08-01T05:03:39;22.60;84.40
68385;DHT22;55336;43.062;25.626;2022-08-01T05:06:04;22.90;77.80
68385;DHT22;55336;43.062;25.626;2022-08-01T05:08:31;23.30;74.10
68385;DHT22;55336;43.062;25.626;2022-08-01T05:10:56;23.60;72.10
68385;DHT22;55336;43.062;25.626;2022-08-01T05:13:22;23.70;64.40
68385;DHT22;55336;43.062;25.626;2022-08-01T05:15:48;23.80;66.70
68385;DHT22;55336;43.062;25.626;2022-08-01T05:18:17;23.60;64.10
68385;DHT22;55336;43.062;25.626;2022-08-01T05:20:43;23.60;68.20
68385;DHT22;55336;43.062;25.626;2022-08-01T05:23:09;23.60;63.20
68385;DHT22;55336;43.062;25.626;2022-08-01T05:25:35;23.60;60.10
68385;DHT22;55336;43.062;25.626;2022-08-01T05:28:01;23.70;57.80
68385;DHT22;55336;43.062;25.626;2022-08-01T05:30:26;23.80;57.10
68385;DHT22;55336;43.062;25.626;2022-08-01T05:32:52;23.90;56.90
68385;DHT22;55336;43.062;25.626;2022-08-01T05:35:18;24.10;54.30
68385;DHT22;55336;43.062;25.626;2022-08-01T05:37:44;24.40;53.10
68385;DHT22;55336;43.062;25.626;2022-08-01T05:40:10;24.80;53.00
68385;DHT22;55336;43.062;25.626;2022-08-01T05:42:38;25.20;52.70
68385;DHT22;55336;43.062;25.626;2022-08-01T05:45:05;25.60;50.10
68385;DHT22;55336;43.062;25.626;2022-08-01T05:47:31;25.70;48.30
68385;DHT22;55336;43.062;25.626;2022-08-01T05:49:56;26.00;49.00
68385;DHT22;55336;43.062;25.626;2022-08-01T05:52:22;26.30;47.30
68385;DHT22;55336;43.062;25.626;2022-08-01T05:54:48;26.90;44.70
68385;DHT22;55336;43.062;25.626;2022-08-01T05:57:14;27.00;45.60
68385;DHT22;55336;43.062;25.626;2022-08-01T05:59:40;26.90;43.30
68385;DHT22;55336;43.062;25.626;2022-08-01T06:02:06;26.60;42.10
68385;DHT22;55336;43.062;25.626;2022-08-01T06:04:32;26.90;41.50
68385;DHT22;55336;43.062;25.626;2022-08-01T06:06:57;27.30;41.80
68385;DHT22;55336;43.062;25.626;2022-08-01T06:09:23;27.20;41.00
68385;DHT22;55336;43.062;25.626;2022-08-01T06:11:49;26.80;40.10
68385;DHT22;55336;43.062;25.626;2022-08-01T06:14:22;27.10;41.00
68385;DHT22;55336;43.062;25.626;2022-08-01T06:16:52;27.00;40.20
68385;DHT22;55336;43.062;25.626;2022-08-01T06:19:18;27.10;39.70
68385;DHT22;55336;43.062;25.626;2022-08-01T06:21:43;27.30;38.50
68385;DHT22;55336;43.062;25.626;2022-08-01T06:24:09;28.00;38.20
68385;DHT22;55336;43.062;25.626;2022-08-01T06:26:35;27.90;37.70
68385;DHT22;55336;43.062;25.626;2022-08-01T06:29:03;27.90;37.20
68385;DHT22;55336;43.062;25.626;2022-08-01T06:31:29;27.90;36.40
68385;DHT22;55336;43.062;25.626;2022-08-01T06:33:56;27.90;37.50
68385;DHT22;55336;43.062;25.626;2022-08-01T06:36:22;27.30;37.70
68385;DHT22;55336;43.062;25.626;2022-08-01T06:38:48;27.60;37.80
68385;DHT22;55336;43.062;25.626;2022-08-01T06:41:17;28.00;36.80
68385;DHT22;55336;43.062;25.626;2022-08-01T06:43:42;28.10;36.90
68385;DHT22;55336;43.062;25.626;2022-08-01T06:46:08;28.00;36.30
68385;DHT22;55336;43.062;25.626;2022-08-01T06:48:34;28.30;35.50
68385;DHT22;55336;43.062;25.626;2022-08-01T06:51:05;28.50;36.30
68385;DHT22;55336;43.062;25.626;2022-08-01T06:53:35;29.30;34.70
68385;DHT22;55336;43.062;25.626;2022-08-01T06:56:01;28.90;34.00
68385;DHT22;55336;43.062;25.626;2022-08-01T06:58:27;28.60;36.60
68385;DHT22;55336;43.062;25.626;2022-08-01T07:00:53;29.20;35.50
68385;DHT22;55336;43.062;25.626;2022-08-01T07:03:19;29.20;34.50
68385;DHT22;55336;43.062;25.626;2022-08-01T07:05:46;28.80;33.90
68385;DHT22;55336;43.062;25.626;2022-08-01T07:08:16;29.00;34.90
68385;DHT22;55336;43.062;25.626;2022-08-01T07:10:43;28.60;34.80
68385;DHT22;55336;43.062;25.626;2022-08-01T07:13:12;29.00;34.60
68385;DHT22;55336;43.062;25.626;2022-08-01T07:15:38;28.40;36.00
68385;DHT22;55336;43.062;25.626;2022-08-01T07:18:07;28.90;36.20
68385;DHT22;55336;43.062;25.626;2022-08-01T07:20:33;29.20;35.10
68385;DHT22;55336;43.062;25.626;2022-08-01T07:23:02;29.10;34.90
68385;DHT22;55336;43.062;25.626;2022-08-01T07:25:27;28.90;33.50
68385;DHT22;55336;43.062;25.626;2022-08-01T07:27:53;28.90;35.00
68385;DHT22;55336;43.062;25.626;2022-08-01T07:30:19;29.60;32.90
68385;DHT22;55336;43.062;25.626;2022-08-01T07:32:52;30.10;34.20
68385;DHT22;55336;43.062;25.626;2022-08-01T07:35:23;30.30;31.90
68385;DHT22;55336;43.062;25.626;2022-08-01T07:37:49;30.20;32.40
68385;DHT22;55336;43.062;25.626;2022-08-01T07:40:19;29.90;32.60
68385;DHT22;55336;43.062;25.626;2022-08-01T07:42:45;30.10;31.90
68385;DHT22;55336;43.062;25.626;2022-08-01T07:45:12;29.90;32.70
68385;DHT22;55336;43.062;25.626;2022-08-01T07:47:38;29.80;31.80
68385;DHT22;55336;43.062;25.626;2022-08-01T07:50:05;30.30;31.40
68385;DHT22;55336;43.062;25.626;2022-08-01T07:52:32;30.10;32.80
68385;DHT22;55336;43.062;25.626;2022-08-01T07:54:58;29.90;32.00
68385;DHT22;55336;43.062;25.626;2022-08-01T07:57:25;29.90;32.70
68385;DHT22;55336;43.062;25.626;2022-08-01T07:59:53;29.70;32.70
68385;DHT22;55336;43.062;25.626;2022-08-01T08:02:20;30.10;32.20
68385;DHT22;55336;43.062;25.626;2022-08-01T08:04:46;29.70;32.20
68385;DHT22;55336;43.062;25.626;2022-08-01T08:07:11;29.50;33.70
68385;DHT22;55336;43.062;25.626;2022-08-01T08:09:41;29.40;33.00
68385;DHT22;55336;43.062;25.626;2022-08-01T08:12:08;29.70;33.50
68385;DHT22;55336;43.062;25.626;2022-08-01T08:14:34;29.90;32.70
68385;DHT22;55336;43.062;25.626;2022-08-01T08:16:59;30.10;33.20
68385;DHT22;55336;43.062;25.626;2022-08-01T08:19:26;29.90;32.40
68385;DHT22;55336;43.062;25.626;2022-08-01T08:21:51;30.30;32.60
68385;DHT22;55336;43.062;25.626;2022-08-01T08:24:18;30.60;31.10
68385;DHT22;55336;43.062;25.626;2022-08-01T08:26:47;30.30;33.00
68385;DHT22;55336;43.062;25.626;2022-08-01T08:29:14;30.60;32.90
68385;DHT22;55336;43.062;25.626;2022-08-01T08:31:40;30.00;33.50
68385;DHT22;55336;43.062;25.626;2022-08-01T08:34:06;29.70;33.30
68385;DHT22;55336;43.062;25.626;2022-08-01T08:36:32;29.00;34.00
68385;DHT22;55336;43.062;25.626;2022-08-01T08:38:59;29.20;35.10
68385;DHT22;55336;43.062;25.626;2022-08-01T08:41:30;29.30;34.90
68385;DHT22;55336;43.062;25.626;2022-08-01T08:43:56;29.90;33.40
68385;DHT22;55336;43.062;25.626;2022-08-01T08:46:26;29.70;35.00
68385;DHT22;55336;43.062;25.626;2022-08-01T08:48:53;30.20;32.90
68385;DHT22;55336;43.062;25.626;2022-08-01T08:51:21;29.90;33.50
68385;DHT22;55336;43.062;25.626;2022-08-01T08:53:49;29.80;32.80
68385;DHT22;55336;43.062;25.626;2022-08-01T08:56:18;29.90;33.50
68385;DHT22;55336;43.062;25.626;2022-08-01T08:58:45;30.00;33.50
68385;DHT22;55336;43.062;25.626;2022-08-01T09:01:12;30.60;32.30
68385;DHT22;55336;43.062;25.626;2022-08-01T09:03:39;30.80;31.80
68385;DHT22;55336;43.062;25.626;2022-08-01T09:06:05;31.20;32.00
68385;DHT22;55336;43.062;25.626;2022-08-01T09:08:33;31.60;30.70
68385;DHT22;55336;43.062;25.626;2022-08-01T09:10:59;31.80;29.50
68385;DHT22;55336;43.062;25.626;2022-08-01T09:13:24;31.30;29.70
68385;DHT22;55336;43.062;25.626;2022-08-01T09:15:54;31.10;33.00
68385;DHT22;55336;43.062;25.626;2022-08-01T09:18:39;30.90;32.70
68385;DHT22;55336;43.062;25.626;2022-08-01T09:21:10;31.00;31.00
68385;DHT22;55336;43.062;25.626;2022-08-01T09:23:46;31.00;30.90
68385;DHT22;55336;43.062;25.626;2022-08-01T09:26:14;30.90;30.80
68385;DHT22;55336;43.062;25.626;2022-08-01T09:28:41;31.50;30.60
68385;DHT22;55336;43.062;25.626;2022-08-01T09:31:09;31.30;30.10
68385;DHT22;55336;43.062;25.626;2022-08-01T09:33:54;31.40;32.20
68385;DHT22;55336;43.062;25.626;2022-08-01T09:36:24;32.30;29.40
68385;DHT22;55336;43.062;25.626;2022-08-01T09:38:52;32.90;27.70
68385;DHT22;55336;43.062;25.626;2022-08-01T09:41:29;32.90;28.30
68385;DHT22;55336;43.062;25.626;2022-08-01T09:43:57;32.80;26.60
68385;DHT22;55336;43.062;25.626;2022-08-01T09:46:23;32.30;28.90
68385;DHT22;55336;43.062;25.626;2022-08-01T09:48:56;31.70;29.50
68385;DHT22;55336;43.062;25.626;2022-08-01T09:51:34;31.60;29.90
68385;DHT22;55336;43.062;25.626;2022-08-01T09:54:01;31.60;29.20
68385;DHT22;55336;43.062;25.626;2022-08-01T09:56:40;32.20;29.30
68385;DHT22;55336;43.062;25.626;2022-08-01T09:59:08;32.20;29.10
68385;DHT22;55336;43.062;25.626;2022-08-01T10:01:45;31.90;29.20
68385;DHT22;55336;43.062;25.626;2022-08-01T10:06:41;32.40;27.60
68385;DHT22;55336;43.062;25.626;2022-08-01T10:09:14;31.90;28.70
68385;DHT22;55336;43.062;25.626;2022-08-01T10:11:44;31.70;29.30
68385;DHT22;55336;43.062;25.626;2022-08-01T10:14:14;31.70;28.50
68385;DHT22;55336;43.062;25.626;2022-08-01T10:16:41;32.10;27.90
68385;DHT22;55336;43.062;25.626;2022-08-01T10:19:07;32.50;27.90
68385;DHT22;55336;43.062;25.626;2022-08-01T10:21:33;31.90;27.50
68385;DHT22;55336;43.062;25.626;2022-08-01T10:24:02;31.20;28.80
68385;DHT22;55336;43.062;25.626;2022-08-01T10:26:30;31.70;29.50
68385;DHT22;55336;43.062;25.626;2022-08-01T10:28:57;32.00;28.20
68385;DHT22;55336;43.062;25.626;2022-08-01T10:31:23;32.10;29.10
68385;DHT22;55336;43.062;25.626;2022-08-01T10:33:50;32.50;28.20
68385;DHT22;55336;43.062;25.626;2022-08-01T10:36:20;32.20;28.20
68385;DHT22;55336;43.062;25.626;2022-08-01T10:38:47;32.70;26.50
68385;DHT22;55336;43.062;25.626;2022-08-01T10:41:13;31.60;28.30
68385;DHT22;55336;43.062;25.626;2022-08-01T10:43:43;30.40;31.20
68385;DHT22;55336;43.062;25.626;2022-08-01T10:46:09;31.20;30.30
68385;DHT22;55336;43.062;25.626;2022-08-01T10:48:43;31.30;29.60
68385;DHT22;55336;43.062;25.626;2022-08-01T10:51:10;32.30;28.70
68385;DHT22;55336;43.062;25.626;2022-08-01T10:53:46;33.10;28.50
68385;DHT22;55336;43.062;25.626;2022-08-01T10:56:12;33.40;26.30
68385;DHT22;55336;43.062;25.626;2022-08-01T10:58:39;32.10;28.10
68385;DHT22;55336;43.062;25.626;2022-08-01T11:01:27;32.00;29.50
68385;DHT22;55336;43.062;25.626;2022-08-01T11:04:14;32.20;28.50
68385;DHT22;55336;43.062;25.626;2022-08-01T11:09:43;31.20;32.00
68385;DHT22;55336;43.062;25.626;2022-08-01T11:12:16;32.10;29.70
68385;DHT22;55336;43.062;25.626;2022-08-01T11:17:43;32.50;28.40
68385;DHT22;55336;43.062;25.626;2022-08-01T11:33:13;32.90;28.00
68385;DHT22;55336;43.062;25.626;2022-08-01T11:38:36;33.30;27.50
68385;DHT22;55336;43.062;25.626;2022-08-01T11:41:24;33.60;26.20
68385;DHT22;55336;43.062;25.626;2022-08-01T11:43:57;33.50;26.00
68385;DHT22;55336;43.062;25.626;2022-08-01T11:54:46;32.30;28.30
68385;DHT22;55336;43.062;25.626;2022-08-01T11:57:18;31.70;27.90
68385;DHT22;55336;43.062;25.626;2022-08-01T12:02:24;32.40;27.80
68385;DHT22;55336;43.062;25.626;2022-08-01T12:04:52;32.70;26.80
68385;DHT22;55336;43.062;25.626;2022-08-01T12:07:19;31.70;28.10
68385;DHT22;55336;43.062;25.626;2022-08-01T12:09:46;31.90;29.40
68385;DHT22;55336;43.062;25.626;2022-08-01T12:12:15;32.50;31.10
68385;DHT22;55336;43.062;25.626;2022-08-01T12:14:44;32.80;27.20
68385;DHT22;55336;43.062;25.626;2022-08-01T12:17:10;33.20;28.00
68385;DHT22;55336;43.062;25.626;2022-08-01T12:19:36;32.70;28.00
68385;DHT22;55336;43.062;25.626;2022-08-01T12:22:13;32.40;28.70
68385;DHT22;55336;43.062;25.626;2022-08-01T12:24:41;32.40;29.30
68385;DHT22;55336;43.062;25.626;2022-08-01T12:27:09;33.00;29.80
68385;DHT22;55336;43.062;25.626;2022-08-01T12:29:41;32.80;29.60
68385;DHT22;55336;43.062;25.626;2022-08-01T12:32:29;32.00;29.90
68385;DHT22;55336;43.062;25.626;2022-08-01T12:35:05;32.00;30.50
68385;DHT22;55336;43.062;25.626;2022-08-01T12:37:36;32.50;30.10
68385;DHT22;55336;43.062;25.626;2022-08-01T12:40:13;32.60;30.90
68385;DHT22;55336;43.062;25.626;2022-08-01T12:42:44;33.10;29.30
68385;DHT22;55336;43.062;25.626;2022-08-01T12:45:13;33.70;29.20
68385;DHT22;55336;43.062;25.626;2022-08-01T12:47:40;33.50;28.00
68385;DHT22;55336;43.062;25.626;2022-08-01T12:50:11;33.70;27.30
68385;DHT22;55336;43.062;25.626;2022-08-01T12:52:38;33.50;27.30
68385;DHT22;55336;43.062;25.626;2022-08-01T12:57:38;33.90;26.40
68385;DHT22;55336;43.062;25.626;2022-08-01T13:00:26;34.20;27.50
68385;DHT22;55336;43.062;25.626;2022-08-01T13:03:07;33.60;27.60
68385;DHT22;55336;43.062;25.626;2022-08-01T13:05:52;33.60;27.70
68385;DHT22;55336;43.062;25.626;2022-08-01T13:08:22;33.10;28.70
68385;DHT22;55336;43.062;25.626;2022-08-01T13:10:50;33.20;28.80
68385;DHT22;55336;43.062;25.626;2022-08-01T13:13:18;33.40;28.40
68385;DHT22;55336;43.062;25.626;2022-08-01T13:15:45;33.80;27.60
68385;DHT22;55336;43.062;25.626;2022-08-01T13:18:25;34.00;27.60
68385;DHT22;55336;43.062;25.626;2022-08-01T13:23:33;33.10;28.60
68385;DHT22;55336;43.062;25.626;2022-08-01T13:25:59;32.70;29.60
68385;DHT22;55336;43.062;25.626;2022-08-01T13:28:26;32.80;28.90
68385;DHT22;55336;43.062;25.626;2022-08-01T13:31:04;33.80;28.30
68385;DHT22;55336;43.062;25.626;2022-08-01T13:33:44;32.80;29.40
68385;DHT22;55336;43.062;25.626;2022-08-01T13:36:11;33.00;27.90
68385;DHT22;55336;43.062;25.626;2022-08-01T13:38:38;33.80;26.60
68385;DHT22;55336;43.062;25.626;2022-08-01T13:41:22;33.00;28.00
68385;DHT22;55336;43.062;25.626;2022-08-01T13:43:48;32.40;28.80
68385;DHT22;55336;43.062;25.626;2022-08-01T13:46:15;32.20;30.00
68385;DHT22;55336;43.062;25.626;2022-08-01T13:48:41;31.80;29.80
68385;DHT22;55336;43.062;25.626;2022-08-01T13:51:06;31.50;30.90
68385;DHT22;55336;43.062;25.626;2022-08-01T13:53:32;31.60;31.90
68385;DHT22;55336;43.062;25.626;2022-08-01T13:55:58;31.90;30.90
68385;DHT22;55336;43.062;25.626;2022-08-01T13:58:24;32.50;29.20
68385;DHT22;55336;43.062;25.626;2022-08-01T14:00:50;32.80;27.80
68385;DHT22;55336;43.062;25.626;2022-08-01T14:03:16;32.80;27.50
68385;DHT22;55336;43.062;25.626;2022-08-01T14:05:49;32.90;27.20
68385;DHT22;55336;43.062;25.626;2022-08-01T14:08:15;32.60;28.50
68385;DHT22;55336;43.062;25.626;2022-08-01T14:10:41;32.50;28.70
68385;DHT22;55336;43.062;25.626;2022-08-01T14:13:07;32.50;27.50
68385;DHT22;55336;43.062;25.626;2022-08-01T14:15:33;32.60;27.70
68385;DHT22;55336;43.062;25.626;2022-08-01T14:17:59;32.80;28.40
68385;DHT22;55336;43.062;25.626;2022-08-01T14:20:25;32.30;29.30
68385;DHT22;55336;43.062;25.626;2022-08-01T14:22:51;32.00;30.60
68385;DHT22;55336;43.062;25.626;2022-08-01T14:25:17;31.60;31.20
68385;DHT22;55336;43.062;25.626;2022-08-01T14:27:44;31.40;32.80
68385;DHT22;55336;43.062;25.626;2022-08-01T14:30:11;31.10;32.60
68385;DHT22;55336;43.062;25.626;2022-08-01T14:32:37;32.00;32.20
68385;DHT22;55336;43.062;25.626;2022-08-01T14:35:05;32.90;28.80
68385;DHT22;55336;43.062;25.626;2022-08-01T14:37:32;32.80;29.70
68385;DHT22;55336;43.062;25.626;2022-08-01T14:39:59;33.40;27.70
68385;DHT22;55336;43.062;25.626;2022-08-01T14:42:26;33.80;27.00
68385;DHT22;55336;43.062;25.626;2022-08-01T14:44:51;34.40;26.00
68385;DHT22;55336;43.062;25.626;2022-08-01T14:47:18;35.00;24.30
68385;DHT22;55336;43.062;25.626;2022-08-01T14:49:43;34.90;24.50
68385;DHT22;55336;43.062;25.626;2022-08-01T14:52:09;34.20;25.70
68385;DHT22;55336;43.062;25.626;2022-08-01T14:54:35;33.80;27.10
68385;DHT22;55336;43.062;25.626;2022-08-01T14:57:01;32.60;28.20
68385;DHT22;55336;43.062;25.626;2022-08-01T14:59:27;32.50;27.10
68385;DHT22;55336;43.062;25.626;2022-08-01T15:01:52;32.40;27.60
68385;DHT22;55336;43.062;25.626;2022-08-01T15:04:18;32.80;27.50
68385;DHT22;55336;43.062;25.626;2022-08-01T15:06:44;32.50;28.30
68385;DHT22;55336;43.062;25.626;2022-08-01T15:09:10;33.10;28.30
68385;DHT22;55336;43.062;25.626;2022-08-01T15:11:36;32.90;27.40
68385;DHT22;55336;43.062;25.626;2022-08-01T15:14:03;32.50;28.30
68385;DHT22;55336;43.062;25.626;2022-08-01T15:16:47;32.20;29.20
68385;DHT22;55336;43.062;25.626;2022-08-01T15:19:13;32.20;29.60
68385;DHT22;55336;43.062;25.626;2022-08-01T15:21:39;32.00;29.40
68385;DHT22;55336;43.062;25.626;2022-08-01T15:24:05;31.70;30.40
68385;DHT22;55336;43.062;25.626;2022-08-01T15:26:32;31.50;30.40
68385;DHT22;55336;43.062;25.626;2022-08-01T15:28:58;31.30;31.50
68385;DHT22;55336;43.062;25.626;2022-08-01T15:31:24;31.50;30.30
68385;DHT22;55336;43.062;25.626;2022-08-01T15:33:49;32.20;29.30
68385;DHT22;55336;43.062;25.626;2022-08-01T15:36:15;32.50;28.10
68385;DHT22;55336;43.062;25.626;2022-08-01T15:38:41;32.40;28.60
68385;DHT22;55336;43.062;25.626;2022-08-01T15:41:09;32.00;29.20
68385;DHT22;55336;43.062;25.626;2022-08-01T15:43:35;32.00;30.20
68385;DHT22;55336;43.062;25.626;2022-08-01T15:46:01;32.10;29.40
68385;DHT22;55336;43.062;25.626;2022-08-01T15:48:29;32.50;28.70
68385;DHT22;55336;43.062;25.626;2022-08-01T15:50:55;32.40;28.70
68385;DHT22;55336;43.062;25.626;2022-08-01T15:53:21;32.00;29.00
68385;DHT22;55336;43.062;25.626;2022-08-01T15:55:46;32.20;28.80
68385;DHT22;55336;43.062;25.626;2022-08-01T15:58:12;32.70;27.70
68385;DHT22;55336;43.062;25.626;2022-08-01T16:00:38;32.90;27.30
68385;DHT22;55336;43.062;25.626;2022-08-01T16:03:04;33.10;27.80
68385;DHT22;55336;43.062;25.626;2022-08-01T16:05:30;33.50;26.80
68385;DHT22;55336;43.062;25.626;2022-08-01T16:07:56;33.60;26.40
68385;DHT22;55336;43.062;25.626;2022-08-01T16:10:22;33.30;26.90
68385;DHT22;55336;43.062;25.626;2022-08-01T16:12:47;33.10;27.90
68385;DHT22;55336;43.062;25.626;2022-08-01T16:15:13;32.80;27.20
68385;DHT22;55336;43.062;25.626;2022-08-01T16:17:39;32.40;27.90
68385;DHT22;55336;43.062;25.626;2022-08-01T16:20:06;32.00;29.50